Station info - map view · info · telemetry · weather · raw · status · beacons · messages · bulletins · browse · moving · my account
Callsign, ship name or locator: Clear       
It is possible to search using wildcards (*?) after a prefix. Example: OH*
APRS station KE0MMS - show graphs
Map loading...
Mic-E message: In service
Location: 39°26.04' N 104°38.63' W - locator DM79QK24RD - show map - static map
1.8 miles North bearing 12° from Ponderosa Park, Elbert County, Colorado, United States [?]
5.0 miles East bearing 107° from The Pinery, Douglas County, Colorado, United States
27.8 miles Southeast bearing 139° from Denver, Denver County, Colorado, United States
42.5 miles North bearing 13° from Colorado Springs, El Paso County, Colorado, United States
Last position: 2018-12-08 19:14:52 EST (2d 13h9m ago)
2018-12-08 17:14:52 MST local time at Ponderosa Park, United States [?]
Altitude: 6578 ft
Course: 144°
Speed: 14 MPH
Device: Kenwood: TH-D72 (ht)
Last path: KE0MMS>S9RVPT via WIDE1-1,WIDE2-1,qAR,W0ARP-3 (good)
Positions stored: 2308
Packet rate: 292 seconds between packets on average during 11975 seconds.
Stations near current position of KE0MMS - show more
callsign distance last heard - EST      callsign distance last heard - EST
KI0XX-20.4 miles 180°2018-12-09 14:01:37 KI0XX1.2 miles 179°2018-12-11 08:07:08
N0KAI-N2.9 miles 52°2018-12-08 21:48:48 N0KAI3.0 miles 53°2018-12-08 22:07:37
W0ARP-103.0 miles 20°2018-12-11 07:55:59 K8ZTT-93.2 miles 211°2018-11-22 14:13:22
N0HI3.3 miles 29°2018-12-11 07:34:27 AC5S3.3 miles 288°2018-12-11 08:02:18
K0PRA B3.3 miles 213°2018-12-11 08:22:07 K0PRA-B3.3 miles 213°2018-12-11 08:22:17
K0PRA3.3 miles 289°2018-12-11 07:31:03 W0ARP-33.4 miles 4°2018-12-11 08:22:46
W0ARP-153.6 miles 4°2018-12-11 08:24:27 W0ARP4.0 miles 3°2018-12-11 08:11:54
W0ARP-94.0 miles 3°2018-12-10 17:12:40 W0ARP-WX4.0 miles 3°2018-12-11 08:23:48
W0DDP-94.1 miles 60°2018-11-17 18:08:17 KC0D4.8 miles 203°2018-12-11 08:07:18
W0AEB-94.9 miles 103°2018-12-10 18:49:35 W0AEB5.0 miles 108°2018-12-11 08:05:19
Stations which heard KE0MMS directly on radio –
callsign pkts first heard - EST last heard longest (tx => rx) longest at - EST
SUNLGT 25 2018-12-06 16:47:59 2018-12-07 18:19:50 DM69OQ > DM69HK 36.7 miles 241° 2018-12-06 17:23:22
VAILMT 16 2018-12-06 17:32:45 2018-12-08 16:19:31 DM69QP > DM69TO 16.1 miles 103° 2018-12-06 17:32:45
KC0D 2 2018-12-06 19:35:05 2018-12-06 20:43:13 DM79IQ > DM79PI 41.6 miles 123° 2018-12-06 19:35:05
ALMGRE 1 2018-12-06 21:00:05 2018-12-06 21:00:05 DM79PK > DM78MS 49.7 miles 200° 2018-12-06 21:00:05
CLIMAX 2 2018-12-06 18:08:20 2018-12-06 18:10:33 DM69WM > DM69VJ 8.9 miles 195° 2018-12-06 18:10:33
SWANMT 13 2018-12-06 18:11:40 2018-12-08 16:35:59 DM69WM > DM69XO 7.9 miles 47° 2018-12-06 18:11:40
DTSERO 16 2018-12-06 17:07:13 2018-12-07 17:54:15 DM69JJ > DM69JP 18.2 miles 8° 2018-12-07 17:54:15
BVILLE 26 2018-12-06 18:13:39 2018-12-08 18:27:56 DM79NN > DM79CQ 47.7 miles 279° 2018-12-08 18:27:56
K0XK-5 2 2018-12-06 19:39:33 2018-12-06 20:40:22 DM79IQ > DM79OO 24.9 miles 105° 2018-12-06 19:39:33
K0MTN-10 3 2018-12-06 19:58:38 2018-12-08 18:08:39 DM79JQ > DM79KO 4.1 miles 139° 2018-12-06 19:58:38
W0ARP 1 2018-12-06 20:24:16 2018-12-06 20:24:16 DM79MN > DM79QL 16.9 miles 107° 2018-12-06 20:24:16
WD4IXD-10 7 2018-12-06 19:47:58 2018-12-08 18:16:04 DM79JQ > DM79LM 15.6 miles 144° 2018-12-06 19:47:58
K0NTS-5 1 2018-12-06 19:25:47 2018-12-06 19:25:47 DM79GR > DM79GR 2.4 miles 142° 2018-12-06 19:25:47
W0ARP-3 21 2018-12-06 19:38:27 2018-12-08 19:14:52 DM79IQ > DM79QL 37.5 miles 114° 2018-12-06 19:38:27
N6BA-10 3 2018-12-06 20:58:47 2018-12-06 21:07:21 DM79QK > DM79OI 9.9 miles 239° 2018-12-06 21:07:21
WA0GEH-10 2 2018-12-06 20:09:11 2018-12-08 18:23:48 DM79KO > DM79MM 10.8 miles 111° 2018-12-06 20:09:11

Only position packets which were originated by the station are shown here. The range statistics show some extra long hops, because some digipeaters do not correctly add themselves to the digipeater path. Please check the raw packets.
About this site
This page shows real-time information collected from the Automatic Position Reporting System Internet network (APRS-IS). APRS is used by amateur (ham) radio operators to transmit real-time position information, weather data, telemetry and messages over the radio. A vehicle equipped with a GPS receiver, a VHF transmitter or HF transceiver and a small computer device called a tracker transmits it's location, speed and course in a small data packet, which is then received by a nearby iGate receiving site which forwards the packet on the Internet. Systems connected to the Internet can send information on the APRS-IS without a radio transmitter, or collect and display information transmitted anywhere in the world.
FAQ · Blog · Discussion group · Linking to aprs.fi · AIS sites · Service status · Database statistics · Advertising on aprs.fi · Technical details · API · Change log · Planned changes · Credits and thanks · Terms Of Service · iPhone/iPad APRS